Beryl, Arkansas
Current Conditions -  °F | °C
As of 3:53 AM on Sunday 23 Nov 2014 (Local Time) from KLRF Reporting Station
Light Rain Light Rain  
Wind Chill: 57°   Ceiling: 900
Heat Index: 57°   Visibility: 9mi
Dew Point: 54°   Wind: 10mph
Humidity: 88%   Direction: 130°SE
Pressure: 29.71"   Gusts: 20mph
Location:  35.0822°N, 92.366°W
Report Text: KLRF 230953Z AUTO 13009G17KT 9SM -RA BKN009 BKN013 OVC033 14/12 A2971 RMK AO2 CIG 009V013
Loading
Personal Weather Stations






























Interactive Weather Map New forecast layout! Learn more

10-Day Weather Forecast

Advertisements
Track Severe Weather on mobile